Time;durP1;ratioP1;P1;durP2;ratioP2;P2;SDS_P1;SDS_P2;PMS_P1;PMS_P2;Temp;Humidity;BMP_temperature;BMP_pressure;BME280_temperature;BME280_humidity;BME280_pressure;Samples;Min_cycle;Max_cycle;Signal;HPM_P1;HPM_P2
2023/08/29 00:01:58;;;;;;;4.63;2.40;;;;;;;12.21;100.00;100534.59;5036206;28;20415;-81
2023/08/29 00:04:31;;;;;;;5.40;2.50;;;;;;;12.17;100.00;100533.56;5031153;28;20427;-81
2023/08/29 00:07:05;;;;;;;6.63;2.75;;;;;;;12.11;100.00;100532.00;5028481;28;20423;-81
2023/08/29 00:09:39;;;;;;;4.47;2.42;;;;;;;12.09;100.00;100524.09;5023570;28;20436;-81
2023/08/29 00:12:13;;;;;;;4.97;2.80;;;;;;;12.12;100.00;100517.25;5030883;28;20423;-81
2023/08/29 00:14:46;;;;;;;6.40;2.63;;;;;;;12.12;100.00;100518.06;5024059;28;20424;-81
2023/08/29 00:17:16;;;;;;;7.13;3.10;;;;;;;12.11;100.00;100512.91;5025686;28;20418;-80
2023/08/29 00:19:49;;;;;;;5.25;2.83;;;;;;;12.16;100.00;100510.09;5026657;28;20423;-81
2023/08/29 00:22:17;;;;;;;5.60;2.90;;;;;;;12.16;100.00;100504.66;5030126;28;20427;-81
2023/08/29 00:24:52;;;;;;;7.80;3.30;;;;;;;12.24;100.00;100501.25;5022889;28;21029;-82
2023/08/29 00:27:21;;;;;;;5.70;3.00;;;;;;;12.21;100.00;100502.66;5025690;28;20436;-80
2023/08/29 00:29:54;;;;;;;5.70;3.20;;;;;;;12.20;100.00;100502.94;5029676;28;20406;-80
2023/08/29 00:32:28;;;;;;;6.78;3.50;;;;;;;12.21;100.00;100491.75;5022154;28;20425;-83
2023/08/29 00:34:56;;;;;;;5.80;3.10;;;;;;;12.23;100.00;100494.97;5024264;28;20415;-80
2023/08/29 00:37:24;;;;;;;4.90;3.00;;;;;;;12.19;100.00;100493.13;5030737;28;20448;-80
2023/08/29 00:39:53;;;;;;;6.18;3.10;;;;;;;12.15;100.00;100486.66;5029294;28;20423;-82
2023/08/29 00:42:22;;;;;;;6.63;3.00;;;;;;;12.19;100.00;100483.06;5026794;28;20435;-81
2023/08/29 00:44:50;;;;;;;7.60;3.00;;;;;;;12.17;100.00;100476.28;5022831;28;20426;-81
2023/08/29 00:47:20;;;;;;;5.75;3.00;;;;;;;12.14;100.00;100474.09;5027489;28;20422;-80
2023/08/29 00:49:48;;;;;;;5.35;2.80;;;;;;;12.14;100.00;100472.22;5042253;28;20438;-81
2023/08/29 00:52:17;;;;;;;6.43;2.92;;;;;;;12.11;100.00;100475.53;5025208;28;20794;-80
2023/08/29 00:54:45;;;;;;;6.75;3.30;;;;;;;12.15;100.00;100482.03;5016024;28;20433;-80
2023/08/29 00:57:18;;;;;;;4.78;3.03;;;;;;;12.12;100.00;100488.03;5025959;28;20419;-81
2023/08/29 00:59:49;;;;;;;5.22;3.15;;;;;;;12.10;100.00;100492.16;5029123;28;20449;-81
2023/08/29 01:02:22;;;;;;;6.47;3.35;;;;;;;12.08;100.00;100496.03;5034108;28;20430;-80
2023/08/29 01:04:50;;;;;;;6.43;3.28;;;;;;;12.06;100.00;100491.97;5042591;28;20423;-81
2023/08/29 01:07:18;;;;;;;6.05;3.40;;;;;;;12.02;100.00;100497.19;5028267;28;20411;-81
2023/08/29 01:09:51;;;;;;;7.60;3.30;;;;;;;12.04;100.00;100505.06;5025191;28;20421;-80
2023/08/29 01:12:20;;;;;;;7.27;3.70;;;;;;;12.07;100.00;100515.41;5016050;28;20912;-81
2023/08/29 01:15:00;;;;;;;6.40;3.50;;;;;;;12.00;100.00;100499.41;5021577;28;20420;-80
2023/08/29 01:17:38;;;;;;;6.80;3.47;;;;;;;11.96;100.00;100483.91;5021970;28;20445;-81
2023/08/29 01:20:13;;;;;;;8.00;4.10;;;;;;;11.96;100.00;100494.81;5023102;28;20419;-80
2023/08/29 01:22:53;;;;;;;8.50;3.65;;;;;;;12.01;100.00;100494.75;5029877;28;20407;-80
2023/08/29 01:25:31;;;;;;;7.80;3.65;;;;;;;12.01;100.00;100501.00;5028055;28;20891;-81
2023/08/29 01:28:07;;;;;;;7.28;3.72;;;;;;;11.97;100.00;100496.44;5027551;28;20414;-80
2023/08/29 01:30:39;;;;;;;6.75;3.50;;;;;;;11.85;100.00;100499.59;5023263;28;20879;-80
2023/08/29 01:33:12;;;;;;;6.17;3.70;;;;;;;11.85;100.00;100514.03;5024501;28;20891;-80
2023/08/29 01:35:46;;;;;;;5.88;3.40;;;;;;;11.77;100.00;100513.88;5045117;28;20789;-80
2023/08/29 01:38:17;;;;;;;7.28;3.60;;;;;;;11.78;100.00;100518.19;5029586;28;20890;-80
2023/08/29 01:40:45;;;;;;;8.82;3.75;;;;;;;11.72;100.00;100520.19;5014873;28;20432;-82
2023/08/29 01:43:15;;;;;;;6.32;3.22;;;;;;;11.67;100.00;100509.34;5027054;28;20430;-80
2023/08/29 01:45:48;;;;;;;6.82;3.70;;;;;;;11.69;100.00;100516.13;5026256;28;20920;-81
2023/08/29 01:48:17;;;;;;;7.22;3.92;;;;;;;11.67;100.00;100518.34;5021819;28;20419;-81
2023/08/29 01:50:50;;;;;;;9.40;3.85;;;;;;;11.66;100.00;100524.88;5026491;28;20414;-80
2023/08/29 01:53:18;;;;;;;9.02;3.78;;;;;;;11.63;100.00;100522.75;5027209;28;20447;-80
2023/08/29 01:55:48;;;;;;;6.90;3.60;;;;;;;11.61;100.00;100519.50;5020388;28;20420;-80
2023/08/29 01:58:24;;;;;;;7.20;3.67;;;;;;;11.60;100.00;100515.16;5021908;28;20420;-81
2023/08/29 02:00:53;;;;;;;8.48;4.07;;;;;;;11.60;100.00;100523.34;5012411;28;20882;-80
2023/08/29 02:03:27;;;;;;;6.45;3.70;;;;;;;11.58;100.00;100512.69;5023407;28;20425;-81
2023/08/29 02:05:56;;;;;;;7.10;3.78;;;;;;;11.56;100.00;100519.56;5020545;28;20444;-81
2023/08/29 02:08:24;;;;;;;7.82;4.25;;;;;;;11.57;100.00;100504.81;5023717;28;20428;-80
2023/08/29 02:10:57;;;;;;;8.83;3.87;;;;;;;11.51;100.00;100512.25;5021896;28;20525;-80
2023/08/29 02:13:32;;;;;;;7.88;4.10;;;;;;;11.47;100.00;100507.69;5023836;28;20428;-81
2023/08/29 02:16:02;;;;;;;9.90;4.30;;;;;;;11.46;100.00;100523.22;5019035;28;20411;-80
2023/08/29 02:18:31;;;;;;;6.85;4.00;;;;;;;11.45;100.00;100518.88;5026595;28;20799;-81
2023/08/29 02:21:04;;;;;;;10.50;4.38;;;;;;;11.46;100.00;100519.66;5022819;28;20419;-80
2023/08/29 02:23:37;;;;;;;7.10;3.90;;;;;;;11.40;100.00;100527.09;5023218;28;20418;-80
2023/08/29 02:26:06;;;;;;;7.70;4.03;;;;;;;11.38;100.00;100523.84;5030072;28;20407;-80
2023/08/29 02:28:41;;;;;;;6.60;3.97;;;;;;;11.41;100.00;100523.28;5026408;28;20419;-81
2023/08/29 02:31:14;;;;;;;8.27;4.07;;;;;;;11.42;100.00;100529.53;5032786;28;20410;-81
2023/08/29 02:33:43;;;;;;;8.48;4.20;;;;;;;11.43;100.00;100534.69;5031599;28;20905;-81
2023/08/29 02:36:16;;;;;;;7.63;4.00;;;;;;;11.38;100.00;100530.09;5027099;28;20416;-85
2023/08/29 02:38:44;;;;;;;8.05;4.47;;;;;;;11.31;100.00;100521.47;5028507;28;20882;-81
2023/08/29 02:41:13;;;;;;;7.95;4.28;;;;;;;11.33;100.00;100532.06;5026022;28;20414;-81
2023/08/29 02:43:42;;;;;;;8.25;4.20;;;;;;;11.35;100.00;100535.31;5036786;28;20430;-83
2023/08/29 02:46:11;;;;;;;8.77;4.40;;;;;;;11.31;100.00;100536.97;5032509;28;20433;-80
2023/08/29 02:48:39;;;;;;;6.88;4.30;;;;;;;11.32;100.00;100525.00;5025465;28;20424;-81
2023/08/29 02:51:07;;;;;;;7.45;4.35;;;;;;;11.28;100.00;100524.75;5035465;28;20419;-81
2023/08/29 02:53:35;;;;;;;7.18;4.40;;;;;;;11.27;100.00;100523.16;5023873;28;20424;-81
2023/08/29 02:56:08;;;;;;;8.93;4.10;;;;;;;11.29;100.00;100523.66;5026283;28;20431;-81
2023/08/29 02:58:43;;;;;;;8.02;4.65;;;;;;;11.24;100.00;100523.69;5034117;28;21009;-81
2023/08/29 03:01:16;;;;;;;8.18;4.70;;;;;;;11.20;100.00;100518.03;5043931;28;20415;-80
2023/08/29 03:03:44;;;;;;;8.53;4.83;;;;;;;11.18;100.00;100516.69;5026370;28;20418;-80
2023/08/29 03:06:18;;;;;;;8.23;4.88;;;;;;;11.20;100.00;100517.22;5024036;28;20934;-80
2023/08/29 03:08:46;;;;;;;8.32;5.00;;;;;;;11.23;100.00;100511.19;5022991;28;20429;-80
2023/08/29 03:11:14;;;;;;;9.07;5.00;;;;;;;11.25;100.00;100505.47;5040702;28;20428;-80
2023/08/29 03:13:49;;;;;;;8.27;4.93;;;;;;;11.24;100.00;100504.63;5030408;28;20752;-81
2023/08/29 03:16:18;;;;;;;9.65;5.30;;;;;;;11.22;100.00;100504.13;5032041;28;20776;-80
2023/08/29 03:18:46;;;;;;;8.35;5.30;;;;;;;11.13;100.00;100505.84;5027771;28;20427;-80
2023/08/29 03:21:15;;;;;;;9.27;5.10;;;;;;;11.09;100.00;100512.97;5028147;28;20505;-81
2023/08/29 03:23:43;;;;;;;11.80;5.40;;;;;;;11.12;100.00;100509.69;5028688;28;20427;-81
2023/08/29 03:26:11;;;;;;;9.70;5.40;;;;;;;11.14;100.00;100502.81;5036434;28;20788;-81
2023/08/29 03:28:43;;;;;;;8.90;5.35;;;;;;;11.17;100.00;100493.28;5029305;28;20413;-81
2023/08/29 03:31:14;;;;;;;10.73;5.35;;;;;;;11.23;100.00;100494.84;5028416;28;20434;-83
2023/08/29 03:33:43;;;;;;;10.27;5.50;;;;;;;11.21;100.00;100483.44;5019576;28;21314;-81
2023/08/29 03:36:17;;;;;;;10.55;5.70;;;;;;;11.20;100.00;100479.09;5029513;28;20423;-81
2023/08/29 03:38:51;;;;;;;11.20;5.68;;;;;;;11.16;100.00;100489.75;5028005;28;20432;-81
2023/08/29 03:41:19;;;;;;;9.60;5.65;;;;;;;11.21;100.00;100484.25;5027677;28;20417;-81
2023/08/29 03:43:51;;;;;;;9.82;5.28;;;;;;;11.16;100.00;100483.50;5028122;28;21068;-81
2023/08/29 03:46:26;;;;;;;9.13;5.20;;;;;;;11.18;100.00;100492.19;5031937;28;20510;-81
2023/08/29 03:48:54;;;;;;;9.75;5.50;;;;;;;11.12;100.00;100483.25;5025933;28;20429;-82
2023/08/29 03:51:27;;;;;;;8.90;5.45;;;;;;;11.12;100.00;100471.56;5029061;28;20423;-82
2023/08/29 03:53:56;;;;;;;11.27;5.88;;;;;;;11.17;100.00;100472.31;5018502;28;20408;-82
2023/08/29 03:56:24;;;;;;;9.60;5.60;;;;;;;11.14;100.00;100475.59;5016204;28;20431;-81
2023/08/29 03:58:53;;;;;;;10.25;5.85;;;;;;;11.14;100.00;100470.16;5029017;28;20426;-82
2023/08/29 04:01:21;;;;;;;8.38;5.15;;;;;;;11.12;100.00;100471.56;5030367;28;20427;-81
2023/08/29 04:03:56;;;;;;;8.73;5.43;;;;;;;11.06;100.00;100466.16;5018791;28;20432;-82
2023/08/29 04:06:32;;;;;;;9.57;5.25;;;;;;;11.06;100.00;100468.88;5025882;28;20432;-82
2023/08/29 04:09:00;;;;;;;10.10;5.63;;;;;;;11.03;100.00;100465.91;5030093;28;20414;-81
2023/08/29 04:11:29;;;;;;;9.88;5.28;;;;;;;11.02;100.00;100465.09;5027529;28;20416;-80
2023/08/29 04:14:03;;;;;;;8.55;5.15;;;;;;;11.03;100.00;100465.91;5028210;28;20405;-81
2023/08/29 04:16:31;;;;;;;9.07;5.63;;;;;;;11.05;100.00;100459.06;5022533;28;20434;-81
2023/08/29 04:19:07;;;;;;;8.80;5.47;;;;;;;11.09;100.00;100456.59;5033700;28;20415;-82
2023/08/29 04:21:35;;;;;;;8.68;5.63;;;;;;;11.13;100.00;100452.19;5030591;28;20419;-84
2023/08/29 04:24:04;;;;;;;10.68;5.93;;;;;;;11.10;100.00;100449.22;5046525;28;20442;-82
2023/08/29 04:26:37;;;;;;;9.50;5.45;;;;;;;11.08;100.00;100452.25;5027668;28;20423;-81
2023/08/29 04:29:10;;;;;;;9.50;5.57;;;;;;;11.04;100.00;100441.09;5035660;28;20423;-82
2023/08/29 04:31:43;;;;;;;9.55;5.40;;;;;;;11.11;100.00;100448.94;5021543;28;20422;-82
2023/08/29 04:34:18;;;;;;;11.70;5.20;;;;;;;11.20;100.00;100451.88;5032884;28;20894;-82
2023/08/29 04:36:47;;;;;;;9.52;5.50;;;;;;;11.12;100.00;100444.31;5038585;28;20436;-81
2023/08/29 04:39:15;;;;;;;8.63;5.60;;;;;;;11.16;100.00;100440.72;5027640;28;20422;-82
2023/08/29 04:41:43;;;;;;;9.00;5.60;;;;;;;11.18;100.00;100433.06;5027234;28;20419;-82
2023/08/29 04:44:11;;;;;;;11.55;6.30;;;;;;;11.18;100.00;100437.72;5021922;28;20424;-79
2023/08/29 04:46:44;;;;;;;10.63;6.43;;;;;;;11.20;100.00;100438.25;5023149;28;20436;-81
2023/08/29 04:49:19;;;;;;;9.40;6.43;;;;;;;11.25;100.00;100438.16;5030517;28;20449;-80
2023/08/29 04:51:52;;;;;;;10.00;6.18;;;;;;;11.26;100.00;100434.34;5025733;28;20458;-82
2023/08/29 04:54:25;;;;;;;11.07;6.30;;;;;;;11.28;100.00;100434.84;5027501;28;20928;-81
2023/08/29 04:56:59;;;;;;;11.88;6.15;;;;;;;11.30;100.00;100437.31;5025932;28;20427;-81
2023/08/29 04:59:27;;;;;;;12.80;6.30;;;;;;;11.33;100.00;100434.78;5025633;28;20444;-83
2023/08/29 05:01:55;;;;;;;10.95;6.35;;;;;;;11.31;100.00;100433.47;5015818;28;20446;-81
2023/08/29 05:04:25;;;;;;;9.68;5.72;;;;;;;11.34;100.00;100433.72;5022740;28;20424;-83
2023/08/29 05:06:58;;;;;;;12.57;6.05;;;;;;;11.37;100.00;100440.50;5020189;28;20431;-83
2023/08/29 05:09:31;;;;;;;12.60;6.18;;;;;;;11.40;100.00;100445.34;5025740;28;20435;-82
2023/08/29 05:12:07;;;;;;;10.35;6.03;;;;;;;11.47;100.00;100439.56;5027475;28;20438;-85
2023/08/29 05:14:35;;;;;;;10.02;5.88;;;;;;;11.50;100.00;100434.34;5023090;28;20430;-82
2023/08/29 05:17:09;;;;;;;9.68;5.78;;;;;;;11.52;100.00;100431.31;5024330;28;20434;-82
2023/08/29 05:19:44;;;;;;;9.35;6.32;;;;;;;11.51;100.00;100435.94;5025883;28;20451;-81
2023/08/29 05:22:18;;;;;;;11.20;6.00;;;;;;;11.53;100.00;100439.19;5027010;28;20423;-83
2023/08/29 05:24:46;;;;;;;11.00;6.38;;;;;;;11.55;100.00;100436.19;5027677;28;20432;-84
2023/08/29 05:27:19;;;;;;;10.63;6.40;;;;;;;11.53;100.00;100435.66;5025465;28;20419;-82
2023/08/29 05:29:53;;;;;;;12.57;6.65;;;;;;;11.52;100.00;100423.13;5023010;28;20457;-83
2023/08/29 05:32:21;;;;;;;10.27;6.32;;;;;;;11.55;100.00;100423.34;5020677;28;20427;-82
2023/08/29 05:34:56;;;;;;;10.45;6.53;;;;;;;11.59;100.00;100415.41;5015513;28;20439;-83
2023/08/29 05:37:29;;;;;;;11.07;6.75;;;;;;;11.61;100.00;100426.00;5025481;28;20455;-82
2023/08/29 05:40:06;;;;;;;14.35;7.25;;;;;;;11.67;100.00;100420.22;5029368;28;20442;-83
2023/08/29 05:42:35;;;;;;;11.80;6.88;;;;;;;11.78;100.00;100409.16;5027432;28;20427;-83
2023/08/29 05:45:08;;;;;;;12.40;6.93;;;;;;;11.80;100.00;100410.47;5024247;28;20792;-82
2023/08/29 05:47:37;;;;;;;10.67;6.97;;;;;;;11.77;100.00;100419.25;5026329;28;20484;-84
2023/08/29 05:50:08;;;;;;;11.82;6.43;;;;;;;11.87;100.00;100426.47;5027912;28;20431;-82
2023/08/29 05:52:36;;;;;;;11.27;6.60;;;;;;;11.90;100.00;100423.16;5027424;28;20760;-83
2023/08/29 05:55:09;;;;;;;10.98;6.38;;;;;;;11.89;100.00;100427.81;5016552;28;20410;-84
2023/08/29 05:57:42;;;;;;;11.40;6.72;;;;;;;11.87;100.00;100437.38;5018599;28;20430;-85
2023/08/29 06:00:18;;;;;;;12.00;6.95;;;;;;;11.98;100.00;100436.16;5018115;28;20432;-84
2023/08/29 06:02:52;;;;;;;11.00;6.45;;;;;;;12.04;100.00;100425.97;5023640;28;20450;-84
2023/08/29 06:05:22;;;;;;;9.90;6.53;;;;;;;12.08;100.00;100432.47;5020805;28;20431;-83
2023/08/29 06:07:55;;;;;;;11.47;6.43;;;;;;;12.23;100.00;100431.41;5016229;28;20432;-82
2023/08/29 06:10:29;;;;;;;11.50;6.22;;;;;;;12.25;100.00;100431.94;5022368;28;20426;-82
2023/08/29 06:13:02;;;;;;;11.03;6.57;;;;;;;12.15;100.00;100441.09;5034299;28;20942;-83
2023/08/29 06:15:35;;;;;;;10.13;6.50;;;;;;;12.14;100.00;100442.19;5027250;28;21074;-84
2023/08/29 06:18:08;;;;;;;11.13;6.70;;;;;;;12.16;100.00;100434.53;5037853;28;20424;-83
2023/08/29 06:20:38;;;;;;;11.18;6.60;;;;;;;12.12;100.00;100433.50;5026979;28;20438;-84
2023/08/29 06:23:06;;;;;;;11.20;7.18;;;;;;;12.26;100.00;100428.09;5017353;28;20449;-83
2023/08/29 06:25:39;;;;;;;11.23;6.70;;;;;;;12.36;100.00;100430.66;5019665;28;20444;-83
2023/08/29 06:28:12;;;;;;;11.45;6.40;;;;;;;12.35;100.00;100425.50;5022919;28;20427;-86
2023/08/29 06:30:40;;;;;;;12.15;6.60;;;;;;;12.44;100.00;100436.56;5033539;28;20441;-83
2023/08/29 06:33:09;;;;;;;12.43;6.72;;;;;;;12.54;100.00;100439.09;5025775;28;20414;-83
2023/08/29 06:35:43;;;;;;;10.00;6.10;;;;;;;12.62;100.00;100437.63;5033504;28;20431;-82
2023/08/29 06:38:11;;;;;;;9.63;6.22;;;;;;;12.76;100.00;100433.81;5020218;28;20427;-82
2023/08/29 06:40:39;;;;;;;12.93;6.03;;;;;;;12.70;100.00;100437.72;5032332;28;20903;-83
2023/08/29 06:43:08;;;;;;;11.57;6.30;;;;;;;12.67;100.00;100434.81;5021326;28;20431;-83
2023/08/29 06:45:41;;;;;;;10.27;6.45;;;;;;;12.72;100.00;100440.97;4975776;28;20438;-84
2023/08/29 06:48:10;;;;;;;11.02;6.70;;;;;;;13.05;100.00;100435.47;4997261;28;20440;-84
2023/08/29 06:50:44;;;;;;;9.82;6.10;;;;;;;13.00;100.00;100442.94;4996412;28;20434;-86
2023/08/29 06:53:18;;;;;;;9.45;6.45;;;;;;;13.01;100.00;100429.00;4998407;28;20903;-85
2023/08/29 06:55:46;;;;;;;9.43;6.45;;;;;;;13.14;100.00;100435.56;4994322;28;20453;-86
2023/08/29 06:58:15;;;;;;;11.90;6.05;;;;;;;13.00;100.00;100434.75;4996020;28;21270;-81
2023/08/29 07:00:48;;;;;;;11.68;6.25;;;;;;;13.03;100.00;100432.22;4994288;28;20436;-85
2023/08/29 07:03:21;;;;;;;12.23;6.68;;;;;;;13.08;100.00;100436.78;4992640;28;21024;-83
2023/08/29 07:05:51;;;;;;;10.65;6.35;;;;;;;13.19;100.00;100434.69;4994425;28;20450;-86
2023/08/29 07:08:19;;;;;;;11.48;6.75;;;;;;;13.29;100.00;100430.94;5017697;28;20415;-86
2023/08/29 07:10:48;;;;;;;9.23;6.35;;;;;;;13.21;100.00;100427.75;5004285;28;20421;-82
2023/08/29 07:13:17;;;;;;;11.45;6.90;;;;;;;13.36;100.00;100425.88;5012738;28;20436;-84
2023/08/29 07:15:50;;;;;;;10.70;6.70;;;;;;;13.24;100.00;100426.34;4995942;28;20435;-85
2023/08/29 07:18:23;;;;;;;10.37;6.77;;;;;;;13.20;100.00;100426.16;5001092;28;20541;-86
2023/08/29 07:20:58;;;;;;;11.57;7.13;;;;;;;13.33;100.00;100430.00;4999716;28;20428;-85
2023/08/29 07:23:33;;;;;;;13.40;6.85;;;;;;;13.39;100.00;100428.00;4996699;28;20427;-85
2023/08/29 07:26:06;;;;;;;11.32;6.40;;;;;;;13.39;100.00;100433.47;4997468;28;22094;-83
2023/08/29 07:28:57;;;;;;;13.70;6.65;;;;;;;13.32;100.00;100439.31;5002480;28;20459;-85
2023/08/29 07:31:30;;;;;;;12.57;6.90;;;;;;;13.31;100.00;100428.69;5005997;28;20427;-87
2023/08/29 07:34:03;;;;;;;11.30;6.27;;;;;;;13.48;100.00;100433.56;5000332;28;20438;-86
2023/08/29 07:36:38;;;;;;;10.20;6.00;;;;;;;13.60;100.00;100437.41;5010869;28;20492;-86
2023/08/29 07:39:12;;;;;;;10.27;5.73;;;;;;;13.70;100.00;100441.00;5020696;28;20423;-82
2023/08/29 07:41:45;;;;;;;11.40;5.95;;;;;;;13.77;100.00;100428.56;4997384;28;21124;-85
2023/08/29 07:44:18;;;;;;;9.10;5.15;;;;;;;13.74;100.00;100442.84;5001224;28;20419;-84
2023/08/29 07:46:46;;;;;;;11.40;5.40;;;;;;;13.87;100.00;100434.91;5000633;28;20434;-83
2023/08/29 07:49:20;;;;;;;9.65;5.05;;;;;;;13.80;100.00;100454.47;5003900;28;20429;-83
2023/08/29 07:51:52;;;;;;;12.73;5.57;;;;;;;13.95;100.00;100450.59;4998264;28;20437;-84
2023/08/29 07:54:20;;;;;;;9.87;5.90;;;;;;;14.20;100.00;100456.59;4998259;28;21703;-84
2023/08/29 07:56:54;;;;;;;8.98;5.20;;;;;;;14.15;100.00;100453.97;4999699;28;20447;-86
2023/08/29 07:59:27;;;;;;;9.03;5.20;;;;;;;14.27;100.00;100455.03;4994993;28;20433;-86
2023/08/29 08:01:55;;;;;;;8.82;5.20;;;;;;;14.24;100.00;100452.13;4995460;28;20450;-83
2023/08/29 08:04:24;;;;;;;9.98;5.35;;;;;;;14.17;100.00;100449.81;4994906;28;20446;-85
2023/08/29 08:06:58;;;;;;;9.07;5.47;;;;;;;14.18;100.00;100448.69;4994907;28;20423;-85
2023/08/29 08:09:32;;;;;;;10.00;5.73;;;;;;;14.06;100.00;100451.97;5000132;28;20439;-84
2023/08/29 08:12:02;;;;;;;9.40;5.95;;;;;;;14.19;100.00;100457.72;4998089;28;20432;-85
2023/08/29 08:14:35;;;;;;;12.07;5.75;;;;;;;14.11;100.00;100442.84;4999677;28;21374;-87
2023/08/29 08:17:08;;;;;;;9.13;5.60;;;;;;;14.20;100.00;100448.41;4995789;28;20433;-85
2023/08/29 08:19:36;;;;;;;11.45;5.57;;;;;;;14.17;100.00;100446.25;4996693;28;20461;-85
2023/08/29 08:22:08;;;;;;;8.88;5.30;;;;;;;14.30;100.00;100453.63;5001388;28;20895;-85
2023/08/29 08:24:36;;;;;;;8.93;5.05;;;;;;;14.55;100.00;100454.13;5000818;28;20484;-85
2023/08/29 08:27:10;;;;;;;8.75;4.70;;;;;;;14.50;100.00;100456.97;4999969;28;20446;-84
2023/08/29 08:29:43;;;;;;;9.07;4.95;;;;;;;14.44;100.00;100445.34;4995271;28;20436;-84
2023/08/29 08:32:16;;;;;;;9.02;5.03;;;;;;;14.52;100.00;100441.06;5004006;28;20442;-86
2023/08/29 08:34:44;;;;;;;7.63;4.57;;;;;;;14.55;100.00;100446.69;4997358;28;20430;-85
2023/08/29 08:37:14;;;;;;;8.07;4.57;;;;;;;14.56;100.00;100450.25;5000385;28;20433;-87
2023/08/29 08:39:42;;;;;;;8.32;4.88;;;;;;;14.61;100.00;100455.59;5000306;28;22029;-86
2023/08/29 08:42:11;;;;;;;7.20;4.47;;;;;;;14.69;100.00;100465.03;4996632;28;20427;-85
2023/08/29 08:44:40;;;;;;;8.10;4.40;;;;;;;14.70;100.00;100472.94;4980303;28;21241;-84
2023/08/29 08:47:09;;;;;;;9.20;4.30;;;;;;;14.64;100.00;100474.19;4997824;28;20438;-84
2023/08/29 08:49:38;;;;;;;8.95;4.70;;;;;;;14.76;100.00;100476.34;5001106;28;20438;-87
2023/08/29 08:52:08;;;;;;;7.72;4.70;;;;;;;14.88;100.00;100473.03;5006787;28;20432;-86
2023/08/29 08:54:43;;;;;;;9.13;4.35;;;;;;;14.71;100.00;100481.97;4999214;28;20437;-85
2023/08/29 08:57:17;;;;;;;8.57;5.05;;;;;;;14.78;100.00;100479.59;4996255;28;20432;-86
2023/08/29 08:59:45;;;;;;;9.40;5.00;;;;;;;14.75;100.00;100483.75;5008298;28;20429;-85
2023/08/29 09:02:19;;;;;;;8.35;4.72;;;;;;;14.85;100.00;100479.94;5003059;28;20423;-85
2023/08/29 09:04:47;;;;;;;9.47;5.03;;;;;;;14.84;100.00;100472.84;4999613;28;20450;-86
2023/08/29 09:07:16;;;;;;;9.32;4.88;;;;;;;14.86;100.00;100473.34;5009582;28;20427;-86
2023/08/29 09:10:09;;;;;;;8.77;4.80;;;;;;;14.95;100.00;100468.72;5007987;28;20421;-85
2023/08/29 09:12:47;;;;;;;9.90;4.78;;;;;;;14.87;100.00;100465.94;5002805;28;20436;-86
2023/08/29 09:15:17;;;;;;;12.02;4.75;;;;;;;14.88;100.00;100479.31;4993639;28;21300;-85
2023/08/29 09:17:47;;;;;;;8.53;5.03;;;;;;;14.81;100.00;100475.41;5006233;28;20441;-86
2023/08/29 09:20:16;;;;;;;8.27;5.10;;;;;;;14.96;100.00;100473.06;5017882;28;20785;-83
2023/08/29 09:22:49;;;;;;;9.27;5.30;;;;;;;14.92;100.00;100471.28;5002540;28;20466;-85
2023/08/29 09:25:25;;;;;;;8.07;4.87;;;;;;;14.97;100.00;100476.63;4997471;28;20424;-86
2023/08/29 09:27:54;;;;;;;9.57;5.10;;;;;;;15.13;100.00;100472.38;4999886;28;20888;-86
2023/08/29 09:30:22;;;;;;;9.55;4.88;;;;;;;15.30;100.00;100471.63;5014208;28;20424;-83
2023/08/29 09:32:55;;;;;;;7.80;4.50;;;;;;;15.44;100.00;100473.44;5021246;28;20443;-87
2023/08/29 09:35:28;;;;;;;9.25;4.75;;;;;;;15.44;100.00;100481.69;5002360;28;20450;-87
2023/08/29 09:38:02;;;;;;;7.95;4.70;;;;;;;15.52;100.00;100480.88;5000582;28;20441;-85
2023/08/29 09:40:45;;;;;;;7.85;4.40;;;;;;;15.65;100.00;100479.94;5000822;28;21225;-84
2023/08/29 09:43:18;;;;;;;8.10;4.68;;;;;;;15.64;100.00;100481.06;5004935;28;20440;-86
2023/08/29 09:45:53;;;;;;;7.72;4.53;;;;;;;15.71;100.00;100477.84;4962851;28;20427;-85
2023/08/29 09:48:27;;;;;;;8.40;4.90;;;;;;;15.67;100.00;100478.81;4984127;28;20436;-84
2023/08/29 09:51:01;;;;;;;9.63;5.38;;;;;;;15.66;100.00;100478.03;4988520;28;20424;-85
2023/08/29 09:53:29;;;;;;;9.55;5.30;;;;;;;15.70;100.00;100472.69;4979180;28;20446;-85
2023/08/29 09:56:07;;;;;;;10.75;4.53;;;;;;;15.81;100.00;100476.78;4978399;28;20447;-86
2023/08/29 09:58:38;;;;;;;9.13;4.73;;;;;;;15.83;100.00;100468.25;4985130;28;20439;-86
2023/08/29 10:01:09;;;;;;;9.38;4.70;;;;;;;15.93;100.00;100465.97;4985404;28;20966;-86
2023/08/29 10:03:39;;;;;;;10.65;4.57;;;;;;;16.00;100.00;100464.72;4978335;28;20421;-86
2023/08/29 10:06:16;;;;;;;8.50;5.22;;;;;;;15.98;100.00;100457.59;4978457;28;20443;-85
2023/08/29 10:08:47;;;;;;;9.23;5.00;;;;;;;16.13;100.00;100464.56;4975685;28;21044;-85
2023/08/29 10:11:17;;;;;;;8.30;4.80;;;;;;;16.04;100.00;100465.69;4985538;28;20413;-87
2023/08/29 10:13:46;;;;;;;9.80;4.55;;;;;;;16.08;100.00;100450.97;4982725;28;20432;-87
2023/08/29 10:16:15;;;;;;;10.68;5.22;;;;;;;16.16;100.00;100457.63;4981374;28;20429;-85
2023/08/29 10:18:46;;;;;;;11.27;5.35;;;;;;;15.94;100.00;100458.56;4984245;28;21008;-85
2023/08/29 10:21:21;;;;;;;9.20;4.80;;;;;;;16.15;100.00;100459.53;4978959;28;20430;-85
2023/08/29 10:23:55;;;;;;;8.52;4.78;;;;;;;16.20;100.00;100463.25;4980715;28;20435;-86
2023/08/29 10:26:26;;;;;;;8.80;4.57;;;;;;;16.24;100.00;100454.06;4979176;28;20444;-87
2023/08/29 10:28:56;;;;;;;7.28;3.88;;;;;;;16.31;100.00;100457.13;4977237;28;20799;-86
2023/08/29 10:31:24;;;;;;;9.27;4.07;;;;;;;16.29;100.00;100455.81;4976533;28;20434;-86
2023/08/29 10:33:55;;;;;;;8.02;4.07;;;;;;;16.40;100.00;100457.09;4978085;28;20417;-85
2023/08/29 10:36:29;;;;;;;8.00;3.90;;;;;;;16.60;100.00;100458.38;4980013;28;20425;-87
2023/08/29 10:39:04;;;;;;;7.10;3.80;;;;;;;16.46;100.00;100450.31;4978551;28;20421;-87
2023/08/29 10:41:46;;;;;;;7.45;3.83;;;;;;;16.61;100.00;100460.00;4982812;28;20432;-87
2023/08/29 10:44:35;;;;;;;6.88;3.67;;;;;;;16.57;100.00;100450.78;4954506;28;20432;-86
2023/08/29 10:47:16;;;;;;;5.50;3.08;;;;;;;16.69;100.00;100452.06;4982494;28;20410;-87
2023/08/29 10:49:45;;;;;;;5.90;3.33;;;;;;;16.74;100.00;100447.19;4981557;28;20434;-86
2023/08/29 10:52:14;;;;;;;5.95;3.25;;;;;;;16.81;100.00;100442.00;4975276;28;20450;-87
2023/08/29 10:54:47;;;;;;;7.97;3.70;;;;;;;17.01;100.00;100450.69;4978762;28;20463;-86
2023/08/29 10:57:30;;;;;;;6.75;3.33;;;;;;;17.13;100.00;100444.50;4981819;28;20436;-87
2023/08/29 11:00:16;;;;;;;5.50;2.65;;;;;;;17.02;100.00;100441.31;4979256;28;20433;-86
2023/08/29 11:02:44;;;;;;;6.13;2.45;;;;;;;16.85;100.00;100428.41;4987840;28;20434;-87
2023/08/29 11:05:15;;;;;;;6.00;2.67;;;;;;;16.78;100.00;100436.38;4985304;28;20442;-84
2023/08/29 11:07:48;;;;;;;4.50;2.70;;;;;;;17.00;100.00;100427.09;4999003;28;20443;-87
2023/08/29 11:10:22;;;;;;;5.72;2.22;;;;;;;16.75;100.00;100426.84;4981522;28;20438;-88
2023/08/29 11:13:11;;;;;;;5.18;2.30;;;;;;;16.76;100.00;100425.69;4980653;28;20546;-87
2023/08/29 11:16:17;;;;;;;4.33;1.90;;;;;;;16.80;100.00;100428.59;4981559;28;20437;-87
2023/08/29 11:18:47;;;;;;;3.35;1.90;;;;;;;16.88;100.00;100425.00;4990724;28;20889;-86
2023/08/29 11:21:16;;;;;;;3.93;2.20;;;;;;;16.89;100.00;100429.41;4981355;28;20445;-87
2023/08/29 11:23:45;;;;;;;4.68;2.22;;;;;;;16.89;100.00;100420.34;4983520;28;20414;-87
2023/08/29 11:26:18;;;;;;;6.30;2.33;;;;;;;16.99;100.00;100425.47;4979342;28;20537;-86
2023/08/29 11:28:52;;;;;;;4.72;2.20;;;;;;;16.92;100.00;100425.19;4987533;28;20434;-86
2023/08/29 11:31:21;;;;;;;7.63;2.00;;;;;;;16.95;100.00;100413.53;4984971;28;20523;-86
2023/08/29 11:33:50;;;;;;;4.45;2.20;;;;;;;16.99;100.00;100420.78;4983491;28;20430;-88
2023/08/29 11:36:18;;;;;;;5.28;2.47;;;;;;;16.66;100.00;100418.59;4982957;28;20434;-87